Alice Springs, Australia
Current Conditions -  °F | °C
As of 10:00 AM on Sunday 23 Nov 2014 (Local Time) from YBAS Reporting Station
Sand / Dust Storm Sand / Dust Storm  
Wind Chill: 97°   Ceiling: Unl
Heat Index: 97°   Visibility: 6mi
Dew Point: 46°   Wind: 14mph
Humidity: 18%   Direction: 310°NW
Pressure: 29.91"   Gusts: NA
Location:  23.7°S, 133.88°E
Report Text: YBAS 230100Z 31012KT 300V050 9999 PO NSC 36/08 Q1013
Loading
Personal Weather Stations






























Interactive Weather Map New forecast layout! Learn more

10-Day Weather Forecast

Advertisements
Track Severe Weather on mobile